Allock, Kentucky
Current Conditions -  °F | °C
As of 5:55 PM on Wednesday 26 Nov 2014 (Local Time) from KI35 Reporting Station
Clear Clear  
Wind Chill: 43°   Ceiling: Unl
Heat Index: 43°   Visibility: 10mi
Dew Point: 21°   Wind: 3mph
Humidity: 42%   Direction: 260°W
Pressure: 29.99"   Gusts: NA
Location:  37.1842°N, 83.1053°W
Report Text: KI35 262255Z AUTO 26003KT 10SM CLR 06/M06 A2999 RMK AO1
Loading
Personal Weather Stations






























Interactive Weather Map New forecast layout! Learn more

10-Day Weather Forecast

Advertisements
Track Severe Weather on mobile